Huvudsida
METAR-TAF:

METAR-TAF

Flygplatser :

Army Air Corps Middle Wallop

Middle Wallop, England

latitud: 51-09N, longitud: 001-34W, höjd: 91 m

Aktuellt väderrapport

Denna rapport gjordes för 54 minuter sedan, klockan 14:50 UTC
Vind 20 kt från nordost
Temperatur 7°C
Fuktighet 36%
Tryck 1037 hPa
Sikt 10 km eller mer

METAR: EGVP 291450Z AUTO 04020KT 9999 SCT050/// 07/M07 Q1037

Tid: 16:44 (15:44 UTC)


TAF: saknas

Aktuella väderrapporter och prognoser från 4000 flygplatser (METAR- och TAF-rapporter).

De tillgängliga stationerna syns som gula och röda prickar på kartan.

För musen över prickarna för att se namnen på stationerna.

Klicka sedan för att få väderrapporter och prognoser.

För att ändra kartan: Klicka på de gröna knapparna med ett svart kors på för att zooma in; den gröna knappen med ett streck på för att zooma ut; eller på de gröna pilarna för angränsande kartor.


METAR-TAF: